Time;durP1;ratioP1;P1;durP2;ratioP2;P2;SDS_P1;SDS_P2;PMS_P1;PMS_P2;Temp;Humidity;BMP_temperature;BMP_pressure;BME280_temperature;BME280_humidity;BME280_pressure;Samples;Min_cycle;Max_cycle;Signal;HPM_P1;HPM_P2
2021/09/17 00:01:07;;;;;;;2.45;1.10;;;16.40;99.90;;;;;;4991957;28;20053;-64
2021/09/17 00:03:33;;;;;;;1.92;1.08;;;16.50;99.90;;;;;;4993310;28;20074;-64
2021/09/17 00:05:58;;;;;;;1.83;0.95;;;16.50;99.90;;;;;;4992704;28;20068;-63
2021/09/17 00:08:24;;;;;;;3.90;1.08;;;16.50;99.90;;;;;;4993841;28;20388;-65
2021/09/17 00:10:49;;;;;;;2.88;1.20;;;16.40;99.90;;;;;;4993680;28;20589;-62
2021/09/17 00:13:15;;;;;;;2.30;1.38;;;16.50;99.90;;;;;;4993565;28;20045;-64
2021/09/17 00:15:41;;;;;;;1.70;1.30;;;16.50;99.90;;;;;;4993425;28;20055;-65
2021/09/17 00:18:06;;;;;;;3.78;1.35;;;16.50;99.90;;;;;;4993622;28;20031;-62
2021/09/17 00:20:32;;;;;;;1.85;1.23;;;16.50;99.90;;;;;;4992624;28;20034;-65
2021/09/17 00:22:57;;;;;;;1.77;1.10;;;16.50;99.90;;;;;;4993638;28;20537;-64
2021/09/17 00:25:23;;;;;;;2.85;1.10;;;16.50;99.90;;;;;;4993352;28;20036;-65
2021/09/17 00:27:48;;;;;;;1.23;1.05;;;16.50;99.90;;;;;;4993423;28;20501;-64
2021/09/17 00:30:14;;;;;;;1.77;1.10;;;16.50;99.90;;;;;;4993197;28;20044;-65
2021/09/17 00:32:39;;;;;;;0.80;0.77;;;16.50;99.90;;;;;;4993302;28;20019;-65
2021/09/17 00:35:06;;;;;;;1.00;0.90;;;16.50;99.90;;;;;;4992388;28;20030;-64
2021/09/17 00:37:31;;;;;;;2.25;1.10;;;16.50;99.90;;;;;;4993186;28;20054;-65
2021/09/17 00:39:57;;;;;;;3.90;1.30;;;16.50;99.90;;;;;;4992200;28;20038;-65
2021/09/17 00:42:23;;;;;;;3.90;1.10;;;16.50;99.90;;;;;;4993283;28;20033;-64
2021/09/17 00:44:48;;;;;;;3.70;1.10;;;16.50;99.90;;;;;;4993128;28;20030;-63
2021/09/17 00:47:15;;;;;;;5.53;1.15;;;16.50;99.90;;;;;;4992968;28;20490;-65
2021/09/17 00:49:40;;;;;;;2.97;1.30;;;16.50;99.90;;;;;;4992030;28;20046;-65
2021/09/17 00:52:06;;;;;;;2.38;1.05;;;16.50;99.90;;;;;;4993122;28;20027;-64
2021/09/17 00:54:34;;;;;;;4.90;1.20;;;16.50;99.90;;;;;;4993121;28;20026;-63
2021/09/17 00:57:03;;;;;;;3.58;1.55;;;16.50;99.90;;;;;;4993153;28;20046;-64
2021/09/17 00:59:28;;;;;;;3.72;1.23;;;16.50;99.90;;;;;;4992982;28;20034;-64
2021/09/17 01:01:54;;;;;;;3.42;1.00;;;16.50;99.90;;;;;;4993019;28;20033;-64
2021/09/17 01:04:22;;;;;;;5.15;1.70;;;16.50;99.90;;;;;;4992333;28;20494;-64
2021/09/17 01:06:47;;;;;;;1.85;0.82;;;16.50;99.90;;;;;;4993055;28;20050;-62
2021/09/17 01:09:13;;;;;;;1.65;1.10;;;16.50;99.90;;;;;;4993077;28;20114;-63
2021/09/17 01:11:38;;;;;;;2.50;1.60;;;16.50;99.90;;;;;;4992879;28;20031;-62
2021/09/17 01:14:04;;;;;;;3.05;1.23;;;16.50;99.90;;;;;;4992918;28;20030;-65
2021/09/17 01:16:30;;;;;;;1.88;1.13;;;16.50;99.90;;;;;;4992793;28;20034;-63
2021/09/17 01:18:56;;;;;;;2.72;1.02;;;16.50;99.90;;;;;;4992051;28;20085;-64
2021/09/17 01:21:22;;;;;;;2.42;1.20;;;16.50;99.90;;;;;;4993031;28;20494;-61
2021/09/17 01:23:49;;;;;;;1.30;1.00;;;16.50;99.90;;;;;;4992943;28;20030;-64
2021/09/17 01:26:14;;;;;;;3.45;1.20;;;16.50;99.90;;;;;;4992678;28;20113;-64
2021/09/17 01:28:41;;;;;;;3.30;1.23;;;16.50;99.90;;;;;;4992833;28;20554;-63
2021/09/17 01:31:07;;;;;;;4.78;1.05;;;16.50;99.90;;;;;;4992496;28;20062;-64
2021/09/17 01:33:33;;;;;;;4.60;1.20;;;16.50;99.90;;;;;;4992836;28;20031;-64
2021/09/17 01:36:02;;;;;;;2.30;1.20;;;16.50;99.90;;;;;;4991491;28;20477;-62
2021/09/17 01:38:29;;;;;;;2.50;1.10;;;16.50;99.90;;;;;;4992901;28;20057;-64
2021/09/17 01:40:55;;;;;;;5.07;1.15;;;16.50;99.90;;;;;;4992750;28;20034;-64
2021/09/17 01:43:22;;;;;;;1.30;1.00;;;16.50;99.90;;;;;;4992601;28;20048;-64
2021/09/17 01:45:48;;;;;;;3.35;1.50;;;16.50;99.90;;;;;;4992587;28;20478;-64
2021/09/17 01:48:13;;;;;;;3.45;1.23;;;16.50;99.90;;;;;;4992467;28;20034;-64
2021/09/17 01:50:39;;;;;;;3.22;1.20;;;16.50;99.90;;;;;;4991627;28;20029;-61
2021/09/17 01:53:04;;;;;;;2.22;1.10;;;16.50;99.90;;;;;;4995950;28;20057;-64
2021/09/17 01:55:30;;;;;;;1.90;1.13;;;16.50;99.90;;;;;;4996227;28;20394;-64
2021/09/17 01:57:56;;;;;;;1.85;1.20;;;16.50;99.90;;;;;;4996157;28;20034;-64
2021/09/17 02:00:21;;;;;;;1.92;1.45;;;16.40;99.90;;;;;;4996130;28;20482;-64
2021/09/17 02:02:47;;;;;;;0.90;0.90;;;16.40;99.90;;;;;;4996054;28;20026;-62
2021/09/17 02:05:13;;;;;;;3.40;1.15;;;16.40;99.90;;;;;;4995318;28;20544;-64
2021/09/17 02:07:39;;;;;;;2.40;1.30;;;16.40;99.90;;;;;;4996038;28;20033;-63
2021/09/17 02:10:06;;;;;;;1.48;0.82;;;16.40;99.90;;;;;;4996059;28;20023;-64
2021/09/17 02:12:31;;;;;;;1.40;0.98;;;16.40;99.90;;;;;;4995780;28;20031;-64
2021/09/17 02:14:57;;;;;;;3.25;0.98;;;16.40;99.90;;;;;;4995857;28;20053;-64
2021/09/17 02:17:23;;;;;;;1.73;1.10;;;16.40;99.90;;;;;;4995824;28;20026;-64
2021/09/17 02:19:49;;;;;;;1.40;0.85;;;16.40;99.90;;;;;;4994856;28;20022;-62
2021/09/17 02:22:14;;;;;;;1.42;0.98;;;16.40;99.90;;;;;;4995804;28;20497;-63
2021/09/17 02:24:40;;;;;;;1.63;1.02;;;16.40;99.90;;;;;;4995747;28;20393;-64
2021/09/17 02:27:06;;;;;;;4.18;1.27;;;16.40;99.90;;;;;;4995499;28;20030;-64
2021/09/17 02:29:31;;;;;;;3.95;1.30;;;16.40;99.90;;;;;;4995691;28;20077;-63
2021/09/17 02:31:57;;;;;;;1.55;0.90;;;16.40;99.90;;;;;;4995563;28;20529;-64
2021/09/17 02:34:22;;;;;;;2.58;1.13;;;16.30;99.90;;;;;;4994673;28;20034;-64
2021/09/17 02:36:48;;;;;;;3.33;1.00;;;16.40;99.90;;;;;;4995398;28;20041;-62
2021/09/17 02:39:15;;;;;;;1.73;1.08;;;16.30;99.90;;;;;;4995611;28;20038;-64
2021/09/17 02:41:41;;;;;;;2.60;0.77;;;16.30;99.90;;;;;;4995377;28;20097;-65
2021/09/17 02:44:06;;;;;;;4.00;1.10;;;16.30;99.90;;;;;;4995445;28;20481;-61
2021/09/17 02:46:32;;;;;;;2.25;1.05;;;16.30;99.90;;;;;;4995303;28;20073;-64
2021/09/17 02:48:57;;;;;;;3.83;1.00;;;16.30;99.90;;;;;;4994024;28;20524;-65
2021/09/17 02:51:23;;;;;;;3.17;1.00;;;16.30;99.90;;;;;;4995330;28;20042;-64
2021/09/17 02:53:48;;;;;;;2.45;0.98;;;16.20;99.90;;;;;;4995286;28;20142;-63
2021/09/17 02:56:14;;;;;;;1.05;0.80;;;16.20;99.90;;;;;;4995117;28;20026;-64
2021/09/17 02:58:39;;;;;;;2.35;1.20;;;16.20;99.90;;;;;;4995106;28;20193;-60
2021/09/17 03:01:05;;;;;;;3.88;1.27;;;16.20;99.90;;;;;;4995073;28;20354;-65
2021/09/17 03:03:30;;;;;;;3.97;1.15;;;16.20;99.90;;;;;;4995157;28;20158;-65
2021/09/17 03:05:56;;;;;;;2.88;1.02;;;16.20;99.90;;;;;;4993896;28;20058;-64
2021/09/17 03:08:21;;;;;;;3.40;1.48;;;16.20;99.90;;;;;;4995057;28;20030;-63
2021/09/17 03:10:47;;;;;;;2.85;1.45;;;16.10;99.90;;;;;;4993447;28;20042;-65
2021/09/17 03:13:12;;;;;;;2.47;1.30;;;16.20;99.90;;;;;;4994888;28;20324;-64
2021/09/17 03:15:38;;;;;;;4.22;1.10;;;16.20;99.90;;;;;;4994810;28;20532;-64
2021/09/17 03:18:03;;;;;;;2.53;1.10;;;16.20;99.90;;;;;;4995023;28;20155;-64
2021/09/17 03:20:29;;;;;;;4.90;1.02;;;16.20;99.90;;;;;;4993866;28;20030;-65
2021/09/17 03:22:55;;;;;;;8.43;1.67;;;16.20;99.90;;;;;;4994593;28;20030;-65
2021/09/17 03:25:20;;;;;;;2.00;1.00;;;16.10;99.90;;;;;;4994710;28;20060;-65
2021/09/17 03:27:46;;;;;;;7.57;1.10;;;16.10;99.90;;;;;;4994376;28;20485;-62
2021/09/17 03:30:12;;;;;;;3.15;0.93;;;16.10;99.90;;;;;;4994627;28;20038;-64
2021/09/17 03:32:38;;;;;;;2.90;1.08;;;16.10;99.90;;;;;;4994534;28;20030;-64
2021/09/17 03:35:04;;;;;;;4.47;1.30;;;16.10;99.90;;;;;;4993417;28;20018;-65
2021/09/17 03:37:30;;;;;;;2.88;1.40;;;16.10;99.90;;;;;;4994360;28;20035;-65
2021/09/17 03:39:55;;;;;;;2.97;1.17;;;16.10;99.90;;;;;;4994392;28;20041;-64
2021/09/17 03:42:21;;;;;;;3.05;0.90;;;16.10;99.90;;;;;;4994093;28;20120;-65
2021/09/17 03:44:46;;;;;;;4.28;1.17;;;16.10;99.90;;;;;;4994322;28;20030;-65
2021/09/17 03:47:12;;;;;;;3.60;1.40;;;16.10;99.90;;;;;;4994082;28;20057;-64
2021/09/17 03:49:37;;;;;;;2.13;1.08;;;16.10;99.90;;;;;;4993095;28;20055;-60
2021/09/17 03:52:03;;;;;;;1.27;1.05;;;16.10;99.90;;;;;;4994068;28;20026;-65
2021/09/17 03:54:29;;;;;;;2.22;1.00;;;16.10;99.90;;;;;;4994310;28;20090;-62
2021/09/17 03:56:56;;;;;;;3.80;1.15;;;16.00;99.90;;;;;;4993752;28;20058;-60
2021/09/17 03:59:22;;;;;;;2.75;0.90;;;15.90;99.90;;;;;;4994155;28;20022;-65
2021/09/17 04:01:48;;;;;;;1.63;0.73;;;15.90;99.90;;;;;;4993945;28;20370;-64
2021/09/17 04:04:14;;;;;;;0.85;0.63;;;15.80;99.90;;;;;;4993135;28;20518;-63
2021/09/17 04:06:42;;;;;;;1.20;0.60;;;15.80;99.90;;;;;;4993805;28;20077;-65
2021/09/17 04:09:08;;;;;;;1.90;0.60;;;15.70;99.90;;;;;;4993520;28;20542;-64
2021/09/17 04:11:34;;;;;;;2.92;0.60;;;15.70;99.90;;;;;;4993667;28;20022;-63
2021/09/17 04:13:59;;;;;;;1.17;0.50;;;15.70;99.90;;;;;;4992604;28;20101;-64
2021/09/17 04:16:24;;;;;;;1.08;0.60;;;15.60;99.90;;;;;;4993794;28;20217;-63
2021/09/17 04:18:50;;;;;;;0.82;0.52;;;15.60;99.90;;;;;;4992706;28;20109;-64
2021/09/17 04:21:15;;;;;;;1.85;0.82;;;15.50;99.90;;;;;;4993609;28;20080;-63
2021/09/17 04:23:41;;;;;;;1.10;0.73;;;15.50;99.90;;;;;;4993667;28;20053;-64
2021/09/17 04:26:06;;;;;;;1.38;0.52;;;15.50;99.90;;;;;;4993416;28;20117;-62
2021/09/17 04:28:32;;;;;;;1.63;0.55;;;15.50;99.90;;;;;;4993462;28;20038;-64
2021/09/17 04:30:57;;;;;;;1.40;0.73;;;15.50;99.90;;;;;;4993467;28;20582;-64
2021/09/17 04:33:23;;;;;;;0.75;0.60;;;15.40;99.90;;;;;;4993501;28;20026;-63
2021/09/17 04:35:48;;;;;;;1.77;0.63;;;15.40;99.90;;;;;;4992392;28;20109;-62
2021/09/17 04:38:14;;;;;;;0.95;0.57;;;15.40;99.90;;;;;;4993205;28;20026;-64
2021/09/17 04:40:40;;;;;;;1.40;0.80;;;15.40;99.90;;;;;;4993392;28;20474;-63
2021/09/17 04:43:06;;;;;;;2.88;0.73;;;15.40;99.90;;;;;;4993205;28;20485;-64
2021/09/17 04:45:31;;;;;;;1.38;0.95;;;15.30;99.90;;;;;;4989925;28;20026;-62
2021/09/17 04:47:57;;;;;;;2.15;0.77;;;15.30;99.90;;;;;;4992216;28;20057;-63
2021/09/17 04:50:22;;;;;;;0.90;0.68;;;15.30;99.90;;;;;;4992045;28;20196;-63
2021/09/17 04:52:51;;;;;;;1.50;0.75;;;15.30;99.90;;;;;;4993065;28;20323;-64
2021/09/17 04:55:17;;;;;;;1.85;0.70;;;15.20;99.90;;;;;;4992784;28;20065;-64
2021/09/17 04:57:43;;;;;;;1.10;0.70;;;15.20;99.90;;;;;;4993065;28;20109;-59
2021/09/17 05:00:09;;;;;;;0.82;0.70;;;15.20;99.90;;;;;;4992958;28;20121;-64
2021/09/17 05:02:34;;;;;;;0.90;0.77;;;15.20;99.90;;;;;;4992949;28;20454;-64
2021/09/17 05:05:00;;;;;;;3.25;0.80;;;15.20;99.90;;;;;;4992106;28;20030;-64
2021/09/17 05:07:25;;;;;;;0.70;0.70;;;15.20;99.90;;;;;;4992748;28;20437;-64
2021/09/17 05:09:51;;;;;;;0.93;0.60;;;15.10;99.90;;;;;;4992588;28;20053;-64
2021/09/17 05:12:16;;;;;;;0.70;0.43;;;15.10;99.90;;;;;;4992583;28;20355;-64
2021/09/17 05:14:42;;;;;;;1.00;0.38;;;15.10;99.90;;;;;;4981961;28;20089;-63
2021/09/17 05:17:07;;;;;;;0.95;0.52;;;15.20;99.90;;;;;;4973332;28;20085;-64
2021/09/17 05:19:33;;;;;;;0.93;0.60;;;15.20;99.90;;;;;;4972574;28;20035;-63
2021/09/17 05:21:58;;;;;;;3.38;0.68;;;15.20;99.90;;;;;;4973414;28;20029;-64
2021/09/17 05:24:24;;;;;;;0.52;0.52;;;15.20;99.90;;;;;;4973352;28;20467;-63
2021/09/17 05:26:50;;;;;;;0.47;0.47;;;15.30;99.90;;;;;;4975000;28;20027;-64
2021/09/17 05:29:16;;;;;;;1.20;0.77;;;15.30;99.90;;;;;;4977278;28;20481;-63
2021/09/17 05:31:42;;;;;;;0.88;0.77;;;15.40;99.90;;;;;;4977404;28;20098;-64
2021/09/17 05:34:08;;;;;;;0.60;0.60;;;15.40;99.90;;;;;;4975817;28;20077;-64
2021/09/17 05:36:33;;;;;;;0.40;0.40;;;15.40;99.90;;;;;;4977591;28;20029;-64
2021/09/17 05:38:59;;;;;;;0.70;0.70;;;15.50;99.90;;;;;;4991888;28;20027;-63
2021/09/17 05:41:25;;;;;;;3.08;0.90;;;15.50;99.90;;;;;;4977101;28;20031;-64
2021/09/17 05:43:51;;;;;;;3.75;1.10;;;15.50;99.90;;;;;;4992912;28;20105;-64
2021/09/17 05:46:17;;;;;;;1.95;0.90;;;15.50;99.90;;;;;;4996515;28;20030;-64
2021/09/17 05:48:43;;;;;;;3.15;0.90;;;15.50;99.90;;;;;;4994891;28;20050;-64
2021/09/17 05:51:09;;;;;;;4.45;0.80;;;15.50;99.90;;;;;;4995103;28;20027;-64
2021/09/17 05:53:34;;;;;;;2.85;0.88;;;15.40;99.90;;;;;;4996169;28;20023;-64
2021/09/17 05:56:00;;;;;;;1.55;0.63;;;15.40;99.90;;;;;;4996153;28;20054;-60
2021/09/17 05:58:30;;;;;;;0.57;0.57;;;15.40;99.90;;;;;;4996221;28;20073;-61
2021/09/17 06:00:57;;;;;;;0.80;0.55;;;15.40;99.90;;;;;;4996372;28;20022;-65
2021/09/17 06:03:23;;;;;;;0.95;0.50;;;15.30;99.90;;;;;;4996125;28;20034;-62
2021/09/17 06:05:48;;;;;;;2.67;0.80;;;15.30;99.90;;;;;;4994832;28;20470;-62
2021/09/17 06:08:14;;;;;;;1.48;0.60;;;15.30;99.90;;;;;;4995745;28;20737;-62
2021/09/17 06:10:39;;;;;;;0.60;0.60;;;15.20;99.90;;;;;;4995998;28;20478;-62
2021/09/17 06:13:05;;;;;;;0.80;0.68;;;15.20;99.90;;;;;;4995889;28;20034;-62
2021/09/17 06:15:30;;;;;;;0.95;0.50;;;15.20;99.90;;;;;;4995965;28;20034;-62
2021/09/17 06:17:56;;;;;;;2.03;0.52;;;15.20;99.90;;;;;;4995865;28;20034;-62
2021/09/17 06:20:21;;;;;;;1.10;0.63;;;15.20;99.90;;;;;;4994673;28;20048;-62
2021/09/17 06:22:47;;;;;;;0.32;0.32;;;15.20;99.90;;;;;;4995734;28;20070;-61
2021/09/17 06:25:15;;;;;;;0.38;0.38;;;15.20;99.90;;;;;;4995584;28;20145;-62
2021/09/17 06:27:44;;;;;;;4.57;0.40;;;15.20;99.90;;;;;;4995693;28;20034;-63
2021/09/17 06:30:10;;;;;;;0.40;0.35;;;15.30;99.90;;;;;;4995615;28;20557;-62
2021/09/17 06:32:36;;;;;;;0.95;0.30;;;15.30;99.90;;;;;;4995658;28;20030;-62
2021/09/17 06:35:02;;;;;;;2.42;0.38;;;15.30;99.90;;;;;;4994322;28;20033;-62
2021/09/17 06:37:28;;;;;;;1.85;0.20;;;15.30;99.90;;;;;;4995201;28;20022;-62
2021/09/17 06:39:53;;;;;;;0.68;0.25;;;15.40;99.90;;;;;;4995370;28;20429;-62
2021/09/17 06:42:19;;;;;;;2.50;0.32;;;15.50;99.90;;;;;;4995371;28;20030;-62
2021/09/17 06:44:44;;;;;;;1.85;0.50;;;15.60;99.90;;;;;;4995391;28;20073;-60
2021/09/17 06:47:11;;;;;;;0.50;0.30;;;15.70;99.90;;;;;;4995327;28;20042;-60
2021/09/17 06:49:37;;;;;;;1.58;0.32;;;15.90;99.90;;;;;;4993969;28;20119;-62
2021/09/17 06:52:02;;;;;;;2.05;0.30;;;16.00;99.90;;;;;;4995280;28;20105;-60
2021/09/17 06:54:28;;;;;;;0.30;0.30;;;16.20;99.90;;;;;;4995006;28;20081;-62
2021/09/17 06:56:53;;;;;;;0.25;0.25;;;16.40;99.90;;;;;;4995328;28;20029;-60
2021/09/17 06:59:19;;;;;;;0.80;0.30;;;16.50;99.90;;;;;;4994996;28;20053;-63
2021/09/17 07:01:44;;;;;;;0.20;0.20;;;16.50;99.90;;;;;;4995245;28;20109;-62
2021/09/17 07:04:10;;;;;;;2.25;0.30;;;16.50;99.90;;;;;;4993624;28;20034;-62
2021/09/17 07:06:37;;;;;;;1.48;0.32;;;16.50;99.90;;;;;;4995120;28;20030;-62
2021/09/17 07:09:03;;;;;;;1.38;0.40;;;16.50;99.90;;;;;;4994700;28;20026;-62
2021/09/17 07:11:28;;;;;;;0.47;0.30;;;16.50;99.90;;;;;;4995102;28;20039;-62
2021/09/17 07:13:54;;;;;;;0.43;0.43;;;16.40;99.90;;;;;;4994819;28;20042;-63
2021/09/17 07:16:19;;;;;;;0.60;0.32;;;16.30;99.90;;;;;;4994844;28;20038;-61
2021/09/17 07:18:45;;;;;;;0.93;0.40;;;16.30;99.90;;;;;;4993469;28;20491;-62
2021/09/17 07:21:10;;;;;;;1.23;0.38;;;16.30;99.90;;;;;;4994756;28;20032;-63
2021/09/17 07:23:36;;;;;;;2.25;0.40;;;16.20;99.90;;;;;;4994685;28;20033;-62
2021/09/17 07:26:02;;;;;;;2.30;0.50;;;16.30;99.90;;;;;;4994580;28;20042;-62
2021/09/17 07:28:32;;;;;;;1.17;0.60;;;16.40;99.90;;;;;;4993300;28;20022;-62
2021/09/17 07:30:58;;;;;;;0.77;0.43;;;16.50;99.90;;;;;;4994604;28;20034;-62
2021/09/17 07:33:23;;;;;;;0.50;0.30;;;16.60;99.90;;;;;;4994439;28;20474;-62
2021/09/17 07:35:49;;;;;;;2.10;0.45;;;16.70;99.90;;;;;;4993235;28;20037;-60
2021/09/17 07:38:14;;;;;;;1.80;0.60;;;16.70;99.90;;;;;;4994191;28;20025;-62
2021/09/17 07:40:40;;;;;;;1.80;0.50;;;16.70;99.90;;;;;;4994444;28;20030;-61
2021/09/17 07:43:05;;;;;;;1.52;0.50;;;16.80;99.90;;;;;;4994169;28;20030;-60
2021/09/17 07:45:31;;;;;;;1.38;0.50;;;17.00;99.90;;;;;;4994333;28;20034;-62
2021/09/17 07:47:57;;;;;;;5.22;0.40;;;17.10;99.90;;;;;;4994309;28;20030;-60
2021/09/17 07:50:24;;;;;;;0.88;0.40;;;17.30;99.90;;;;;;4991826;28;20070;-63
2021/09/17 07:52:49;;;;;;;1.58;0.50;;;17.30;99.90;;;;;;4994221;28;20045;-62
2021/09/17 07:55:15;;;;;;;0.82;0.40;;;17.20;99.90;;;;;;4993792;28;20458;-61
2021/09/17 07:57:41;;;;;;;2.70;0.30;;;17.20;99.90;;;;;;4994208;28;20394;-63
2021/09/17 08:00:09;;;;;;;0.98;0.70;;;17.20;99.90;;;;;;4993963;28;20460;-63
2021/09/17 08:02:34;;;;;;;3.40;0.60;;;17.10;99.90;;;;;;4993863;28;20026;-59
2021/09/17 08:05:00;;;;;;;0.55;0.55;;;17.00;99.90;;;;;;4992475;28;20049;-63
2021/09/17 08:07:25;;;;;;;0.47;0.30;;;16.90;99.90;;;;;;4993726;28;20162;-60
2021/09/17 08:09:52;;;;;;;3.30;0.40;;;17.00;99.90;;;;;;4993719;28;20042;-63
2021/09/17 08:12:17;;;;;;;1.00;0.45;;;16.90;99.90;;;;;;4993663;28;20029;-62
2021/09/17 08:14:43;;;;;;;2.60;0.50;;;16.90;99.90;;;;;;4993664;28;20027;-62
2021/09/17 08:17:08;;;;;;;0.30;0.20;;;16.90;99.90;;;;;;4993810;28;20032;-62
2021/09/17 08:19:34;;;;;;;0.68;0.22;;;16.90;99.90;;;;;;4992411;28;20097;-61
2021/09/17 08:21:59;;;;;;;1.48;0.43;;;17.00;99.90;;;;;;4993732;28;20038;-62
2021/09/17 08:24:25;;;;;;;0.25;0.20;;;17.10;99.90;;;;;;4993508;28;20081;-62
2021/09/17 08:26:52;;;;;;;3.20;0.38;;;17.20;99.90;;;;;;4993564;28;20525;-63
2021/09/17 08:29:18;;;;;;;0.70;0.40;;;17.40;99.90;;;;;;4993339;28;20034;-61
2021/09/17 08:31:45;;;;;;;1.30;0.30;;;17.50;99.90;;;;;;4993667;28;20105;-61
2021/09/17 08:34:10;;;;;;;0.40;0.30;;;17.80;99.90;;;;;;4992381;28;20029;-62
2021/09/17 08:36:37;;;;;;;1.05;0.30;;;17.90;99.90;;;;;;4993269;28;20030;-62
2021/09/17 08:39:04;;;;;;;1.35;0.50;;;17.90;99.90;;;;;;4993333;28;20105;-61
2021/09/17 08:41:30;;;;;;;0.10;0.10;;;18.00;99.90;;;;;;4993311;28;20022;-63
2021/09/17 08:43:56;;;;;;;1.38;0.20;;;18.10;99.90;;;;;;4993286;28;20386;-61
2021/09/17 08:46:23;;;;;;;0.50;0.40;;;18.10;99.90;;;;;;4993288;28;20041;-61
2021/09/17 08:48:49;;;;;;;0.50;0.40;;;18.20;99.90;;;;;;4991822;28;20057;-62
2021/09/17 08:51:16;;;;;;;1.75;0.40;;;18.10;99.90;;;;;;4993098;28;20030;-62
2021/09/17 08:53:41;;;;;;;5.47;0.40;;;18.10;99.90;;;;;;4993190;28;20027;-63
2021/09/17 08:56:08;;;;;;;1.23;0.17;;;18.20;99.90;;;;;;4993310;28;20041;-62
2021/09/17 08:58:34;;;;;;;1.08;0.20;;;18.20;99.90;;;;;;4992934;28;20037;-63
2021/09/17 09:00:59;;;;;;;0.35;0.20;;;18.30;99.90;;;;;;4993433;28;20401;-63
2021/09/17 09:03:28;;;;;;;2.05;0.20;;;18.30;99.90;;;;;;4993106;28;20031;-62
2021/09/17 09:05:54;;;;;;;1.88;0.30;;;18.30;99.90;;;;;;4992316;28;20339;-62
2021/09/17 09:08:26;;;;;;;1.27;0.55;;;18.40;99.90;;;;;;4993176;28;20032;-63
2021/09/17 09:10:52;;;;;;;1.65;0.28;;;18.40;99.90;;;;;;4993119;28;20034;-62
2021/09/17 09:13:18;;;;;;;0.30;0.30;;;18.50;99.90;;;;;;4993273;28;20406;-61
2021/09/17 09:15:43;;;;;;;0.30;0.20;;;18.50;99.90;;;;;;4992931;28;20056;-62
2021/09/17 09:18:13;;;;;;;0.30;0.20;;;18.70;99.90;;;;;;4991771;28;20049;-62
2021/09/17 09:20:41;;;;;;;0.55;0.30;;;18.70;99.90;;;;;;4991679;28;20031;-62
2021/09/17 09:23:16;;;;;;;1.17;0.22;;;18.70;99.90;;;;;;4993143;28;20019;-62
2021/09/17 09:25:57;;;;;;;0.45;0.20;;;18.80;99.90;;;;;;4992943;28;20441;-62
2021/09/17 09:28:29;;;;;;;2.92;0.30;;;18.80;99.90;;;;;;4992729;28;20504;-63
2021/09/17 09:30:56;;;;;;;1.67;0.50;;;18.80;99.90;;;;;;4992792;28;20077;-62
2021/09/17 09:33:32;;;;;;;0.35;0.32;;;18.80;99.90;;;;;;4992903;28;20045;-63
2021/09/17 09:36:15;;;;;;;0.50;0.40;;;18.70;99.90;;;;;;4992754;28;20026;-62
2021/09/17 09:38:42;;;;;;;2.08;0.55;;;18.70;99.90;;;;;;4992826;28;20033;-62
2021/09/17 09:41:29;;;;;;;2.40;0.40;;;18.70;99.90;;;;;;4992635;28;20031;-62
2021/09/17 09:43:58;;;;;;;0.32;0.30;;;18.70;99.90;;;;;;4992285;28;20045;-61
2021/09/17 09:46:31;;;;;;;0.63;0.30;;;18.70;99.90;;;;;;4992809;28;20057;-62
2021/09/17 09:48:59;;;;;;;0.32;0.30;;;18.60;99.90;;;;;;4991314;28;20049;-62
2021/09/17 09:51:38;;;;;;;0.25;0.25;;;18.50;99.90;;;;;;4992604;28;20026;-63
2021/09/17 09:54:05;;;;;;;0.38;0.20;;;18.40;99.90;;;;;;4992672;28;20014;-62
2021/09/17 09:56:32;;;;;;;0.75;0.32;;;18.30;99.90;;;;;;4992755;28;20033;-62
2021/09/17 09:59:02;;;;;;;2.15;0.40;;;18.20;99.90;;;;;;4992515;28;20046;-62
2021/09/17 10:01:29;;;;;;;0.40;0.30;;;18.20;99.90;;;;;;4992609;28;20022;-63
2021/09/17 10:03:56;;;;;;;0.20;0.20;;;18.30;99.90;;;;;;4991518;28;20037;-63
2021/09/17 10:06:25;;;;;;;1.45;0.60;;;18.40;99.90;;;;;;4992541;28;20089;-62
2021/09/17 10:08:53;;;;;;;0.30;0.30;;;18.40;99.90;;;;;;4992682;28;20481;-63
2021/09/17 10:11:23;;;;;;;0.77;0.40;;;18.60;99.90;;;;;;4992484;28;20046;-63
2021/09/17 10:13:53;;;;;;;1.02;0.30;;;18.70;99.90;;;;;;4995193;28;20447;-63
2021/09/17 10:16:22;;;;;;;1.10;0.40;;;18.70;99.90;;;;;;4996057;28;20018;-62
2021/09/17 10:18:48;;;;;;;0.47;0.30;;;18.70;99.90;;;;;;4994582;28;20173;-60
2021/09/17 10:21:48;;;;;;;1.95;0.55;;;18.70;99.90;;;;;;4995912;28;20101;-63
2021/09/17 10:24:25;;;;;;;0.57;0.45;;;18.90;99.90;;;;;;4995800;28;20018;-63
2021/09/17 10:27:23;;;;;;;0.80;0.43;;;19.00;99.90;;;;;;4995849;28;20026;-62
2021/09/17 10:29:54;;;;;;;0.25;0.20;;;18.90;99.90;;;;;;4995520;28;20034;-63
2021/09/17 10:32:26;;;;;;;1.38;0.28;;;18.70;99.90;;;;;;4995820;28;20378;-61
2021/09/17 10:35:09;;;;;;;0.60;0.30;;;18.60;99.90;;;;;;4994369;28;20363;-63
2021/09/17 10:37:55;;;;;;;5.97;4.28;;;18.70;99.90;;;;;;4995401;28;20027;-63
2021/09/17 10:40:40;;;;;;;1.70;1.60;;;18.70;99.90;;;;;;4995589;28;20058;-62
2021/09/17 10:43:08;;;;;;;1.38;1.27;;;18.80;99.90;;;;;;4995590;28;20187;-63
2021/09/17 10:45:41;;;;;;;2.72;1.17;;;18.90;99.90;;;;;;4995125;28;20032;-63
2021/09/17 10:48:08;;;;;;;2.00;0.82;;;18.90;99.90;;;;;;4995416;28;20026;-62
2021/09/17 10:50:38;;;;;;;1.92;1.02;;;18.90;99.90;;;;;;4993812;28;20162;-63
2021/09/17 10:53:04;;;;;;;0.70;0.65;;;18.80;99.90;;;;;;4995387;28;20116;-61
2021/09/17 10:56:01;;;;;;;1.58;0.70;;;18.70;99.90;;;;;;4995181;28;20077;-63
2021/09/17 10:58:31;;;;;;;0.60;0.50;;;18.40;99.90;;;;;;4995126;28;20037;-62
2021/09/17 11:01:06;;;;;;;5.15;0.57;;;18.20;99.90;;;;;;4995104;28;20026;-60
2021/09/17 11:03:44;;;;;;;0.32;0.32;;;18.00;99.90;;;;;;4993804;28;20076;-63
2021/09/17 11:06:19;;;;;;;0.35;0.20;;;17.80;99.90;;;;;;4995032;28;20485;-60
2021/09/17 11:08:56;;;;;;;0.35;0.17;;;17.70;99.90;;;;;;4994872;28;20366;-63
2021/09/17 11:11:32;;;;;;;1.10;0.10;;;17.70;99.90;;;;;;4994913;28;20038;-63
2021/09/17 11:14:00;;;;;;;0.68;0.15;;;17.70;99.90;;;;;;4994982;28;20411;-63
2021/09/17 11:16:27;;;;;;;0.30;0.30;;;17.80;99.90;;;;;;4994645;28;20030;-60
2021/09/17 11:18:57;;;;;;;0.20;0.20;;;17.90;99.90;;;;;;4993750;28;20033;-62
2021/09/17 11:21:22;;;;;;;0.28;0.15;;;18.00;99.90;;;;;;4993363;28;20064;-63
2021/09/17 11:23:49;;;;;;;0.57;0.15;;;18.20;99.90;;;;;;4993799;28;20050;-63
2021/09/17 11:26:34;;;;;;;1.20;0.30;;;18.40;99.90;;;;;;4994504;28;20042;-63
2021/09/17 11:29:08;;;;;;;0.55;0.10;;;18.60;99.90;;;;;;4994757;28;20022;-63
2021/09/17 11:31:36;;;;;;;1.60;0.20;;;18.90;99.90;;;;;;4994288;28;20030;-63
2021/09/17 11:34:07;;;;;;;0.40;0.40;;;19.00;99.90;;;;;;4993423;28;20027;-61
2021/09/17 11:36:54;;;;;;;1.50;0.40;;;19.10;99.90;;;;;;4993122;28;20410;-63
2021/09/17 11:39:25;;;;;;;0.68;0.40;;;19.10;99.90;;;;;;4994523;28;20022;-63
2021/09/17 11:41:54;;;;;;;1.60;0.25;;;18.90;99.90;;;;;;4994313;28;20058;-63
2021/09/17 11:44:47;;;;;;;0.55;0.22;;;18.80;99.90;;;;;;4974879;28;20486;-63
2021/09/17 11:47:19;;;;;;;0.35;0.15;;;18.70;99.90;;;;;;4974908;28;20121;-60
2021/09/17 11:49:46;;;;;;;1.05;0.25;;;18.70;99.90;;;;;;4973193;28;20082;-63
2021/09/17 11:52:14;;;;;;;1.13;0.30;;;18.70;99.90;;;;;;4975099;28;20027;-63
2021/09/17 11:54:40;;;;;;;0.82;0.30;;;18.70;99.90;;;;;;4974518;28;20114;-61
2021/09/17 11:57:09;;;;;;;0.57;0.32;;;18.80;99.90;;;;;;4974687;28;20031;-62
2021/09/17 11:59:43;;;;;;;0.88;0.30;;;18.80;99.90;;;;;;4974633;28;20031;-61
2021/09/17 12:02:23;;;;;;;1.92;0.30;;;18.80;99.50;;;;;;4974650;28;20019;-63
2021/09/17 12:04:57;;;;;;;0.25;0.20;;;18.90;99.70;;;;;;4973361;28;20336;-63
2021/09/17 12:07:23;;;;;;;0.43;0.30;;;18.90;99.70;;;;;;4974659;28;20019;-62
2021/09/17 12:09:50;;;;;;;0.77;0.45;;;19.10;99.90;;;;;;4974274;28;20035;-62
2021/09/17 12:12:16;;;;;;;0.40;0.32;;;19.20;99.50;;;;;;4974694;28;20106;-62
2021/09/17 12:14:49;;;;;;;0.15;0.13;;;19.20;98.20;;;;;;4984907;28;20126;-63
2021/09/17 12:17:15;;;;;;;1.23;0.32;;;19.30;98.30;;;;;;4993674;28;20400;-62
2021/09/17 12:19:55;;;;;;;0.40;0.38;;;19.30;98.20;;;;;;4992304;28;20030;-63
2021/09/17 12:22:47;;;;;;;2.03;0.30;;;19.40;96.00;;;;;;4993846;28;20118;-63
2021/09/17 12:25:19;;;;;;;0.85;0.43;;;19.20;96.20;;;;;;4993621;28;20018;-62
2021/09/17 12:27:47;;;;;;;0.80;0.30;;;19.10;97.70;;;;;;4993525;28;20201;-63
2021/09/17 12:30:20;;;;;;;1.33;0.40;;;19.10;98.50;;;;;;4993294;28;20105;-62
2021/09/17 12:33:24;;;;;;;1.35;0.30;;;19.00;97.90;;;;;;4993315;28;20528;-62
2021/09/17 12:35:54;;;;;;;0.35;0.28;;;18.90;96.10;;;;;;4992317;28;20097;-62
2021/09/17 12:38:23;;;;;;;0.30;0.25;;;18.90;98.90;;;;;;4993450;28;20077;-63
2021/09/17 12:40:54;;;;;;;0.45;0.30;;;18.90;99.10;;;;;;4989305;28;20398;-60
2021/09/17 12:43:31;;;;;;;0.73;0.20;;;18.80;98.60;;;;;;4992367;28;20037;-63
2021/09/17 12:46:06;;;;;;;0.17;0.17;;;18.80;97.90;;;;;;4991387;28;20023;-60
2021/09/17 12:48:34;;;;;;;0.68;0.35;;;18.70;98.60;;;;;;4992029;28;20431;-58
2021/09/17 12:51:00;;;;;;;0.68;0.50;;;18.50;98.80;;;;;;4992809;28;20136;-62